sensor_id;sensor_type;location;lat;lon;timestamp;pressure;altitude;pressure_sealevel;temperature;humidity
60375;BME280;70244;48.792;9.172;2024-03-22T05:16:51;98061.95;;;18.97;75.97
60375;BME280;70244;48.792;9.172;2024-03-22T05:19:22;98060.04;;;18.86;76.33
60375;BME280;70244;48.792;9.172;2024-03-22T05:21:14;98057.37;;;18.84;76.53
60375;BME280;70244;48.792;9.172;2024-03-22T05:23:44;98058.43;;;18.89;76.25
60375;BME280;70244;48.792;9.172;2024-03-22T05:26:15;98055.32;;;18.95;76.14
60375;BME280;70244;48.792;9.172;2024-03-22T05:28:46;98051.52;;;18.91;76.30
60375;BME280;70244;48.792;9.172;2024-03-22T05:31:16;98052.05;;;18.92;76.25
60375;BME280;70244;48.792;9.172;2024-03-22T05:33:47;98052.45;;;18.95;76.19
60375;BME280;70244;48.792;9.172;2024-03-22T05:36:18;98047.01;;;19.20;75.49
60375;BME280;70244;48.792;9.172;2024-03-22T05:38:48;98048.68;;;19.21;75.50
60375;BME280;70244;48.792;9.172;2024-03-22T05:41:19;98044.47;;;19.10;75.89
60375;BME280;70244;48.792;9.172;2024-03-22T05:43:50;98043.80;;;19.13;75.87
60375;BME280;70244;48.792;9.172;2024-03-22T05:46:20;98041.33;;;19.28;75.50
60375;BME280;70244;48.792;9.172;2024-03-22T05:48:51;98038.79;;;19.58;74.70
60375;BME280;70244;48.792;9.172;2024-03-22T05:51:21;98032.13;;;19.75;74.27
60375;BME280;70244;48.792;9.172;2024-03-22T05:53:52;98027.66;;;19.86;74.15
60375;BME280;70244;48.792;9.172;2024-03-22T05:56:23;98025.46;;;20.14;73.44
60375;BME280;70244;48.792;9.172;2024-03-22T05:58:53;98025.84;;;20.11;73.60
60375;BME280;70244;48.792;9.172;2024-03-22T06:01:24;98028.27;;;20.31;72.98
60375;BME280;70244;48.792;9.172;2024-03-22T06:03:55;98023.11;;;20.50;71.17
60375;BME280;70244;48.792;9.172;2024-03-22T06:06:25;98020.01;;;20.45;72.01
60375;BME280;70244;48.792;9.172;2024-03-22T06:08:56;98016.42;;;20.47;71.80
60375;BME280;70244;48.792;9.172;2024-03-22T06:11:26;98021.40;;;20.55;71.42
60375;BME280;70244;48.792;9.172;2024-03-22T06:13:57;98020.21;;;20.76;70.29
60375;BME280;70244;48.792;9.172;2024-03-22T06:16:28;98021.41;;;20.81;69.68
60375;BME280;70244;48.792;9.172;2024-03-22T06:18:58;98020.56;;;21.01;68.17
60375;BME280;70244;48.792;9.172;2024-03-22T06:21:29;98020.33;;;20.82;66.81
60375;BME280;70244;48.792;9.172;2024-03-22T06:23:59;98014.31;;;20.87;67.68
60375;BME280;70244;48.792;9.172;2024-03-22T06:26:29;98016.80;;;20.90;64.45
60375;BME280;70244;48.792;9.172;2024-03-22T06:29:00;98015.86;;;20.75;63.74
60375;BME280;70244;48.792;9.172;2024-03-22T06:31:31;98014.58;;;21.06;61.87
60375;BME280;70244;48.792;9.172;2024-03-22T06:34:01;98017.03;;;21.21;61.84
60375;BME280;70244;48.792;9.172;2024-03-22T06:36:31;98014.85;;;21.13;62.35
60375;BME280;70244;48.792;9.172;2024-03-22T06:39:02;98012.52;;;21.12;61.20
60375;BME280;70244;48.792;9.172;2024-03-22T06:41:32;98011.98;;;21.12;60.85
60375;BME280;70244;48.792;9.172;2024-03-22T06:44:03;98013.25;;;21.19;59.68
60375;BME280;70244;48.792;9.172;2024-03-22T06:46:33;98011.89;;;21.11;58.87
60375;BME280;70244;48.792;9.172;2024-03-22T06:49:04;98008.35;;;21.12;58.37
60375;BME280;70244;48.792;9.172;2024-03-22T06:51:34;98006.74;;;20.77;58.19
60375;BME280;70244;48.792;9.172;2024-03-22T06:54:04;98003.72;;;20.71;58.67
60375;BME280;70244;48.792;9.172;2024-03-22T06:56:35;98005.40;;;20.78;58.56
60375;BME280;70244;48.792;9.172;2024-03-22T06:59:06;98007.91;;;20.61;59.16
60375;BME280;70244;48.792;9.172;2024-03-22T07:01:36;98006.31;;;20.69;59.21
60375;BME280;70244;48.792;9.172;2024-03-22T07:04:07;98009.60;;;20.68;59.63
60375;BME280;70244;48.792;9.172;2024-03-22T07:06:38;98006.25;;;20.69;60.05
60375;BME280;70244;48.792;9.172;2024-03-22T07:09:08;98004.99;;;20.64;60.45
60375;BME280;70244;48.792;9.172;2024-03-22T07:11:38;98004.05;;;20.67;60.84
60375;BME280;70244;48.792;9.172;2024-03-22T07:14:09;98002.76;;;20.60;61.28
60375;BME280;70244;48.792;9.172;2024-03-22T07:16:39;98000.29;;;20.61;61.61
60375;BME280;70244;48.792;9.172;2024-03-22T07:19:11;98002.18;;;20.59;61.96
60375;BME280;70244;48.792;9.172;2024-03-22T07:21:40;97998.22;;;20.64;62.19
60375;BME280;70244;48.792;9.172;2024-03-22T07:24:11;97999.02;;;20.54;62.69
60375;BME280;70244;48.792;9.172;2024-03-22T07:26:41;97999.01;;;20.52;63.00
60375;BME280;70244;48.792;9.172;2024-03-22T07:29:12;97993.08;;;20.45;63.21
60375;BME280;70244;48.792;9.172;2024-03-22T07:31:42;97991.03;;;20.45;63.43
60375;BME280;70244;48.792;9.172;2024-03-22T07:34:13;97989.79;;;20.39;63.69
60375;BME280;70244;48.792;9.172;2024-03-22T07:36:43;97988.64;;;20.38;63.91
60375;BME280;70244;48.792;9.172;2024-03-22T07:39:14;97985.79;;;20.36;64.09
60375;BME280;70244;48.792;9.172;2024-03-22T07:41:44;97984.14;;;20.39;64.16
60375;BME280;70244;48.792;9.172;2024-03-22T07:44:15;97978.10;;;20.35;64.52
60375;BME280;70244;48.792;9.172;2024-03-22T07:46:46;97976.03;;;20.33;64.71
60375;BME280;70244;48.792;9.172;2024-03-22T07:49:16;97977.79;;;20.32;64.94
60375;BME280;70244;48.792;9.172;2024-03-22T07:51:47;97977.16;;;20.39;64.92
60375;BME280;70244;48.792;9.172;2024-03-22T07:54:17;97975.24;;;20.31;65.29
60375;BME280;70244;48.792;9.172;2024-03-22T07:56:47;97974.15;;;20.22;65.65
60375;BME280;70244;48.792;9.172;2024-03-22T07:59:18;97975.81;;;20.27;65.66
60375;BME280;70244;48.792;9.172;2024-03-22T08:01:48;97976.81;;;20.33;65.70
60375;BME280;70244;48.792;9.172;2024-03-22T08:04:19;97979.27;;;20.27;65.89
60375;BME280;70244;48.792;9.172;2024-03-22T08:06:50;97980.85;;;20.28;66.09
60375;BME280;70244;48.792;9.172;2024-03-22T08:09:20;97979.51;;;20.19;66.35
60375;BME280;70244;48.792;9.172;2024-03-22T08:11:50;97980.41;;;20.39;65.92
60375;BME280;70244;48.792;9.172;2024-03-22T08:14:21;97974.51;;;20.60;65.40
60375;BME280;70244;48.792;9.172;2024-03-22T08:16:51;97974.02;;;20.60;65.34
60375;BME280;70244;48.792;9.172;2024-03-22T08:19:22;97967.25;;;20.50;65.54
60375;BME280;70244;48.792;9.172;2024-03-22T08:21:53;97963.16;;;20.45;65.55
60375;BME280;70244;48.792;9.172;2024-03-22T08:24:24;97961.16;;;20.48;65.49
60375;BME280;70244;48.792;9.172;2024-03-22T08:26:54;97959.44;;;20.61;65.10
60375;BME280;70244;48.792;9.172;2024-03-22T08:29:25;97956.66;;;20.42;65.56
60375;BME280;70244;48.792;9.172;2024-03-22T08:31:56;97954.97;;;20.31;65.87
60375;BME280;70244;48.792;9.172;2024-03-22T08:34:26;97954.03;;;20.29;66.02
60375;BME280;70244;48.792;9.172;2024-03-22T08:36:57;97947.55;;;20.43;65.64
60375;BME280;70244;48.792;9.172;2024-03-22T08:39:27;97943.04;;;20.44;65.70
60375;BME280;70244;48.792;9.172;2024-03-22T08:41:58;97940.96;;;20.27;66.18
60375;BME280;70244;48.792;9.172;2024-03-22T08:44:28;97945.96;;;20.16;66.55
60375;BME280;70244;48.792;9.172;2024-03-22T08:46:58;97941.00;;;20.28;66.32
60375;BME280;70244;48.792;9.172;2024-03-22T08:49:28;97933.18;;;20.42;65.97
60375;BME280;70244;48.792;9.172;2024-03-22T08:51:59;97928.51;;;20.31;66.30
60375;BME280;70244;48.792;9.172;2024-03-22T08:54:30;97932.48;;;20.35;66.31
60375;BME280;70244;48.792;9.172;2024-03-22T08:57:01;97935.18;;;20.34;66.30
60375;BME280;70244;48.792;9.172;2024-03-22T08:59:31;97933.02;;;20.38;65.73
60375;BME280;70244;48.792;9.172;2024-03-22T09:02:01;97927.18;;;20.52;65.82
60375;BME280;70244;48.792;9.172;2024-03-22T09:04:31;97930.42;;;20.44;66.08
60375;BME280;70244;48.792;9.172;2024-03-22T09:07:02;97924.71;;;20.39;66.18
60375;BME280;70244;48.792;9.172;2024-03-22T09:09:33;97921.51;;;20.33;66.30
60375;BME280;70244;48.792;9.172;2024-03-22T09:12:03;97922.06;;;20.19;66.78
60375;BME280;70244;48.792;9.172;2024-03-22T09:14:33;97922.05;;;20.17;66.85
60375;BME280;70244;48.792;9.172;2024-03-22T09:17:04;97927.66;;;20.03;67.27
60375;BME280;70244;48.792;9.172;2024-03-22T09:19:35;97918.87;;;20.18;66.94
60375;BME280;70244;48.792;9.172;2024-03-22T09:22:06;97919.98;;;20.26;66.87
60375;BME280;70244;48.792;9.172;2024-03-22T09:24:36;97914.77;;;20.31;66.76
60375;BME280;70244;48.792;9.172;2024-03-22T09:27:07;97910.46;;;20.28;66.95
60375;BME280;70244;48.792;9.172;2024-03-22T09:29:38;97904.66;;;20.10;67.46
60375;BME280;70244;48.792;9.172;2024-03-22T09:32:08;97907.11;;;19.91;67.98
60375;BME280;70244;48.792;9.172;2024-03-22T09:34:39;97900.00;;;20.01;67.79
60375;BME280;70244;48.792;9.172;2024-03-22T09:37:09;97894.32;;;19.95;68.03
60375;BME280;70244;48.792;9.172;2024-03-22T09:39:40;97896.78;;;20.29;67.15
60375;BME280;70244;48.792;9.172;2024-03-22T09:42:16;97890.26;;;20.26;67.12
60375;BME280;70244;48.792;9.172;2024-03-22T09:44:46;97888.90;;;20.29;66.90
60375;BME280;70244;48.792;9.172;2024-03-22T09:47:12;97884.05;;;20.41;66.56
60375;BME280;70244;48.792;9.172;2024-03-22T09:49:43;97881.85;;;20.35;66.76
60375;BME280;70244;48.792;9.172;2024-03-22T09:52:14;97877.11;;;20.31;66.92
60375;BME280;70244;48.792;9.172;2024-03-22T09:54:44;97878.80;;;20.16;67.14
60375;BME280;70244;48.792;9.172;2024-03-22T09:57:15;97871.65;;;20.13;67.38
60375;BME280;70244;48.792;9.172;2024-03-22T09:59:44;97872.20;;;20.18;67.29
60375;BME280;70244;48.792;9.172;2024-03-22T10:02:14;97861.61;;;20.39;66.80
60375;BME280;70244;48.792;9.172;2024-03-22T10:04:45;97852.54;;;20.25;67.10
60375;BME280;70244;48.792;9.172;2024-03-22T10:07:15;97852.01;;;20.18;67.33
60375;BME280;70244;48.792;9.172;2024-03-22T10:09:46;97848.02;;;20.41;66.66
60375;BME280;70244;48.792;9.172;2024-03-22T10:12:17;97846.12;;;20.55;66.30
60375;BME280;70244;48.792;9.172;2024-03-22T10:14:47;97847.70;;;20.59;66.23
60375;BME280;70244;48.792;9.172;2024-03-22T10:17:18;97848.29;;;20.58;66.28
60375;BME280;70244;48.792;9.172;2024-03-22T10:19:49;97837.81;;;20.84;65.69
60375;BME280;70244;48.792;9.172;2024-03-22T10:22:19;97837.74;;;20.66;66.18
60375;BME280;70244;48.792;9.172;2024-03-22T10:24:50;97830.97;;;20.65;66.28
60375;BME280;70244;48.792;9.172;2024-03-22T10:27:20;97830.19;;;20.57;66.46
60375;BME280;70244;48.792;9.172;2024-03-22T10:29:51;97818.89;;;20.40;66.83
60375;BME280;70244;48.792;9.172;2024-03-22T10:32:23;97815.03;;;20.48;66.76
60375;BME280;70244;48.792;9.172;2024-03-22T10:34:53;97814.27;;;20.64;66.42
60375;BME280;70244;48.792;9.172;2024-03-22T10:37:23;97807.28;;;20.73;66.17
60375;BME280;70244;48.792;9.172;2024-03-22T10:39:55;97806.86;;;20.62;66.46
60375;BME280;70244;48.792;9.172;2024-03-22T10:42:24;97801.90;;;20.71;66.23
60375;BME280;70244;48.792;9.172;2024-03-22T10:44:55;97796.83;;;20.77;66.03
60375;BME280;70244;48.792;9.172;2024-03-22T10:47:29;97793.08;;;20.89;65.75
60375;BME280;70244;48.792;9.172;2024-03-22T10:50:04;97786.21;;;20.85;65.89
60375;BME280;70244;48.792;9.172;2024-03-22T10:52:28;97780.66;;;20.83;65.94
60375;BME280;70244;48.792;9.172;2024-03-22T10:54:58;97780.00;;;20.57;66.69
60375;BME280;70244;48.792;9.172;2024-03-22T10:57:28;97776.12;;;20.88;65.95
60375;BME280;70244;48.792;9.172;2024-03-22T10:59:59;97774.34;;;21.03;65.50
60375;BME280;70244;48.792;9.172;2024-03-22T11:02:29;97775.18;;;20.83;66.01
60375;BME280;70244;48.792;9.172;2024-03-22T11:05:01;97768.39;;;20.96;65.72
60375;BME280;70244;48.792;9.172;2024-03-22T11:07:31;97766.39;;;20.91;65.85
60375;BME280;70244;48.792;9.172;2024-03-22T11:10:02;97768.02;;;21.06;65.50
60375;BME280;70244;48.792;9.172;2024-03-22T11:12:32;97763.75;;;21.20;65.17
60375;BME280;70244;48.792;9.172;2024-03-22T11:15:03;97760.87;;;21.03;65.61
60375;BME280;70244;48.792;9.172;2024-03-22T11:17:34;97758.60;;;20.79;66.26
60375;BME280;70244;48.792;9.172;2024-03-22T11:20:05;97754.53;;;20.79;66.34
60375;BME280;70244;48.792;9.172;2024-03-22T11:22:35;97753.44;;;20.98;65.90
60375;BME280;70244;48.792;9.172;2024-03-22T11:25:06;97754.83;;;21.01;65.82
60375;BME280;70244;48.792;9.172;2024-03-22T11:27:36;97748.26;;;21.10;65.57
60375;BME280;70244;48.792;9.172;2024-03-22T11:30:07;97737.87;;;20.94;65.98
60375;BME280;70244;48.792;9.172;2024-03-22T11:32:38;97732.00;;;21.10;65.58
60375;BME280;70244;48.792;9.172;2024-03-22T11:35:09;97729.76;;;20.97;65.95
60375;BME280;70244;48.792;9.172;2024-03-22T11:37:39;97719.49;;;21.31;65.08
60375;BME280;70244;48.792;9.172;2024-03-22T11:40:10;97712.80;;;21.26;65.19
60375;BME280;70244;48.792;9.172;2024-03-22T11:42:41;97709.84;;;21.38;64.90
60375;BME280;70244;48.792;9.172;2024-03-22T11:45:12;97705.11;;;21.36;65.01
60375;BME280;70244;48.792;9.172;2024-03-22T11:47:42;97701.06;;;21.15;65.95
60375;BME280;70244;48.792;9.172;2024-03-22T11:50:13;97704.23;;;20.84;66.81
60375;BME280;70244;48.792;9.172;2024-03-22T11:52:44;97697.97;;;20.95;66.95
60375;BME280;70244;48.792;9.172;2024-03-22T11:55:14;97689.17;;;20.98;67.07
60375;BME280;70244;48.792;9.172;2024-03-22T11:57:48;97687.25;;;21.04;67.11
60375;BME280;70244;48.792;9.172;2024-03-22T12:00:18;97681.84;;;21.03;67.24
60375;BME280;70244;48.792;9.172;2024-03-22T12:02:46;97680.45;;;21.22;66.34
60375;BME280;70244;48.792;9.172;2024-03-22T12:05:17;97674.19;;;21.07;66.93
60375;BME280;70244;48.792;9.172;2024-03-22T12:07:47;97670.67;;;21.04;66.77
60375;BME280;70244;48.792;9.172;2024-03-22T12:10:17;97670.67;;;21.03;66.62
60375;BME280;70244;48.792;9.172;2024-03-22T12:12:48;97666.21;;;21.22;66.12
60375;BME280;70244;48.792;9.172;2024-03-22T12:15:19;97657.99;;;21.38;65.60
60375;BME280;70244;48.792;9.172;2024-03-22T12:17:49;97652.63;;;21.38;65.54
60375;BME280;70244;48.792;9.172;2024-03-22T12:20:20;97645.60;;;21.50;65.25
60375;BME280;70244;48.792;9.172;2024-03-22T12:22:50;97642.34;;;21.53;65.10
60375;BME280;70244;48.792;9.172;2024-03-22T12:25:21;97631.41;;;21.73;64.64
60375;BME280;70244;48.792;9.172;2024-03-22T12:27:52;97626.36;;;21.81;64.36
60375;BME280;70244;48.792;9.172;2024-03-22T12:30:22;97621.23;;;21.83;64.27
60375;BME280;70244;48.792;9.172;2024-03-22T12:32:53;97615.76;;;21.79;64.36
60375;BME280;70244;48.792;9.172;2024-03-22T12:35:24;97608.88;;;21.69;64.63
60375;BME280;70244;48.792;9.172;2024-03-22T12:37:54;97606.18;;;21.75;64.44
60375;BME280;70244;48.792;9.172;2024-03-22T12:40:25;97600.81;;;21.65;64.61
60375;BME280;70244;48.792;9.172;2024-03-22T12:42:56;97602.02;;;21.75;64.42
60375;BME280;70244;48.792;9.172;2024-03-22T12:45:26;97596.95;;;21.58;64.77
60375;BME280;70244;48.792;9.172;2024-03-22T12:47:56;97592.29;;;21.74;64.48
60375;BME280;70244;48.792;9.172;2024-03-22T12:50:27;97589.40;;;21.79;64.29
60375;BME280;70244;48.792;9.172;2024-03-22T12:52:58;97583.66;;;21.84;64.17
60375;BME280;70244;48.792;9.172;2024-03-22T12:55:28;97581.65;;;21.90;64.00
60375;BME280;70244;48.792;9.172;2024-03-22T12:57:59;97574.97;;;21.83;64.09
60375;BME280;70244;48.792;9.172;2024-03-22T13:00:30;97574.46;;;21.79;64.28
60375;BME280;70244;48.792;9.172;2024-03-22T13:03:01;97571.10;;;21.74;64.46
60375;BME280;70244;48.792;9.172;2024-03-22T13:05:31;97566.96;;;21.90;64.09
60375;BME280;70244;48.792;9.172;2024-03-22T13:08:02;97559.13;;;21.86;64.12
60375;BME280;70244;48.792;9.172;2024-03-22T13:10:32;97550.50;;;21.88;64.13
60375;BME280;70244;48.792;9.172;2024-03-22T13:13:03;97550.70;;;21.87;64.15
60375;BME280;70244;48.792;9.172;2024-03-22T13:15:34;97544.10;;;21.84;64.20
60375;BME280;70244;48.792;9.172;2024-03-22T13:18:04;97536.82;;;21.93;64.01
60375;BME280;70244;48.792;9.172;2024-03-22T13:20:35;97534.29;;;21.99;63.86
60375;BME280;70244;48.792;9.172;2024-03-22T13:23:05;97528.47;;;22.07;63.65
60375;BME280;70244;48.792;9.172;2024-03-22T13:25:35;97527.27;;;21.92;62.00
60375;BME280;70244;48.792;9.172;2024-03-22T13:28:06;97522.13;;;22.00;62.67
60375;BME280;70244;48.792;9.172;2024-03-22T13:30:37;97518.68;;;21.99;63.18
60375;BME280;70244;48.792;9.172;2024-03-22T13:33:07;97515.05;;;21.90;63.61
60375;BME280;70244;48.792;9.172;2024-03-22T13:35:38;97509.30;;;21.90;63.74
60375;BME280;70244;48.792;9.172;2024-03-22T13:38:09;97504.49;;;22.01;63.36
60375;BME280;70244;48.792;9.172;2024-03-22T13:40:39;97502.34;;;22.01;63.41
60375;BME280;70244;48.792;9.172;2024-03-22T13:43:10;97498.40;;;22.13;63.15
60375;BME280;70244;48.792;9.172;2024-03-22T13:45:41;97494.48;;;22.22;62.96
60375;BME280;70244;48.792;9.172;2024-03-22T13:48:11;97495.10;;;22.20;63.05
60375;BME280;70244;48.792;9.172;2024-03-22T13:50:42;97495.20;;;22.15;63.13
60375;BME280;70244;48.792;9.172;2024-03-22T13:53:12;97492.01;;;22.18;63.24
60375;BME280;70244;48.792;9.172;2024-03-22T13:55:43;97490.73;;;22.14;63.29
60375;BME280;70244;48.792;9.172;2024-03-22T13:58:13;97486.26;;;22.30;62.90
60375;BME280;70244;48.792;9.172;2024-03-22T14:00:44;97482.52;;;22.32;62.90
60375;BME280;70244;48.792;9.172;2024-03-22T14:03:14;97481.94;;;22.25;63.04
60375;BME280;70244;48.792;9.172;2024-03-22T14:05:45;97476.57;;;22.28;63.06
60375;BME280;70244;48.792;9.172;2024-03-22T14:08:15;97476.86;;;22.32;62.95
60375;BME280;70244;48.792;9.172;2024-03-22T14:10:46;97471.78;;;22.27;63.10
60375;BME280;70244;48.792;9.172;2024-03-22T14:13:17;97469.07;;;22.19;63.28
60375;BME280;70244;48.792;9.172;2024-03-22T14:15:47;97466.15;;;22.24;63.20
60375;BME280;70244;48.792;9.172;2024-03-22T14:18:18;97467.07;;;22.01;63.59
60375;BME280;70244;48.792;9.172;2024-03-22T14:20:48;97460.02;;;22.22;63.19
60375;BME280;70244;48.792;9.172;2024-03-22T14:23:19;97459.81;;;22.18;63.36
60375;BME280;70244;48.792;9.172;2024-03-22T14:25:50;97456.00;;;22.13;63.45
60375;BME280;70244;48.792;9.172;2024-03-22T14:28:20;97450.26;;;22.04;63.70
60375;BME280;70244;48.792;9.172;2024-03-22T14:30:50;97445.76;;;22.21;63.27
60375;BME280;70244;48.792;9.172;2024-03-22T14:33:21;97446.30;;;22.15;63.41
60375;BME280;70244;48.792;9.172;2024-03-22T14:35:52;97441.12;;;22.22;63.27
60375;BME280;70244;48.792;9.172;2024-03-22T14:38:22;97438.58;;;22.18;63.34
60375;BME280;70244;48.792;9.172;2024-03-22T14:40:54;97435.34;;;22.28;63.12
60375;BME280;70244;48.792;9.172;2024-03-22T14:43:24;97433.97;;;22.32;63.01
60375;BME280;70244;48.792;9.172;2024-03-22T14:45:55;97432.26;;;22.28;63.06
60375;BME280;70244;48.792;9.172;2024-03-22T14:48:25;97431.29;;;22.37;62.88
60375;BME280;70244;48.792;9.172;2024-03-22T14:50:55;97431.77;;;22.27;63.14
60375;BME280;70244;48.792;9.172;2024-03-22T14:53:26;97430.81;;;22.30;63.03
60375;BME280;70244;48.792;9.172;2024-03-22T14:55:58;97431.43;;;22.31;63.09
60375;BME280;70244;48.792;9.172;2024-03-22T14:58:28;97423.63;;;22.30;63.08
60375;BME280;70244;48.792;9.172;2024-03-22T15:01:00;97420.81;;;21.89;64.31
60375;BME280;70244;48.792;9.172;2024-03-22T15:03:29;97415.74;;;21.93;64.29
60375;BME280;70244;48.792;9.172;2024-03-22T15:06:00;97413.88;;;21.54;66.34
60375;BME280;70244;48.792;9.172;2024-03-22T15:08:30;97410.81;;;21.87;65.90
60375;BME280;70244;48.792;9.172;2024-03-22T15:11:02;97409.72;;;21.65;66.03
60375;BME280;70244;48.792;9.172;2024-03-22T15:13:31;97403.69;;;22.01;65.34
60375;BME280;70244;48.792;9.172;2024-03-22T15:16:02;97397.92;;;21.93;65.10
60375;BME280;70244;48.792;9.172;2024-03-22T15:18:32;97397.95;;;22.07;64.26
60375;BME280;70244;48.792;9.172;2024-03-22T15:21:03;97393.25;;;22.01;64.46
60375;BME280;70244;48.792;9.172;2024-03-22T15:23:33;97390.77;;;22.04;64.76
60375;BME280;70244;48.792;9.172;2024-03-22T15:26:03;97385.17;;;21.93;65.03
60375;BME280;70244;48.792;9.172;2024-03-22T15:28:34;97380.59;;;22.02;65.07
60375;BME280;70244;48.792;9.172;2024-03-22T15:31:04;97380.44;;;22.00;64.96
60375;BME280;70244;48.792;9.172;2024-03-22T15:33:35;97377.00;;;21.93;63.55
60375;BME280;70244;48.792;9.172;2024-03-22T15:36:05;97377.80;;;22.12;64.22
60375;BME280;70244;48.792;9.172;2024-03-22T15:38:36;97376.32;;;22.28;63.37
60375;BME280;70244;48.792;9.172;2024-03-22T15:41:06;97374.70;;;22.01;63.92
60375;BME280;70244;48.792;9.172;2024-03-22T15:43:36;97371.17;;;22.13;63.41
60375;BME280;70244;48.792;9.172;2024-03-22T15:46:07;97368.37;;;22.08;63.64
60375;BME280;70244;48.792;9.172;2024-03-22T15:48:37;97364.36;;;22.04;63.68
60375;BME280;70244;48.792;9.172;2024-03-22T15:51:08;97359.73;;;21.98;64.21
60375;BME280;70244;48.792;9.172;2024-03-22T15:53:39;97352.23;;;22.06;64.02
60375;BME280;70244;48.792;9.172;2024-03-22T15:56:10;97349.43;;;22.42;62.37
60375;BME280;70244;48.792;9.172;2024-03-22T15:58:40;97353.95;;;22.14;63.55
60375;BME280;70244;48.792;9.172;2024-03-22T16:01:10;97353.63;;;22.27;63.46
60375;BME280;70244;48.792;9.172;2024-03-22T16:03:41;97350.24;;;22.49;61.18
60375;BME280;70244;48.792;9.172;2024-03-22T16:06:11;97349.51;;;22.47;61.95
60375;BME280;70244;48.792;9.172;2024-03-22T16:08:42;97347.29;;;22.12;63.16
60375;BME280;70244;48.792;9.172;2024-03-22T16:11:12;97345.96;;;22.31;62.49
60375;BME280;70244;48.792;9.172;2024-03-22T16:13:43;97342.83;;;22.39;62.10
60375;BME280;70244;48.792;9.172;2024-03-22T16:16:14;97339.14;;;22.16;61.33
60375;BME280;70244;48.792;9.172;2024-03-22T16:18:44;97333.21;;;22.48;60.99
60375;BME280;70244;48.792;9.172;2024-03-22T16:21:15;97332.58;;;22.48;61.65
60375;BME280;70244;48.792;9.172;2024-03-22T16:23:45;97332.55;;;22.77;58.98
60375;BME280;70244;48.792;9.172;2024-03-22T16:26:15;97329.27;;;22.48;61.73
60375;BME280;70244;48.792;9.172;2024-03-22T16:28:46;97329.22;;;22.97;59.61
60375;BME280;70244;48.792;9.172;2024-03-22T16:31:17;97322.76;;;23.22;58.68
60375;BME280;70244;48.792;9.172;2024-03-22T16:33:47;97319.49;;;23.38;58.47
60375;BME280;70244;48.792;9.172;2024-03-22T16:36:17;97321.71;;;23.30;58.72
60375;BME280;70244;48.792;9.172;2024-03-22T16:38:48;97321.62;;;23.09;59.32
60375;BME280;70244;48.792;9.172;2024-03-22T16:41:19;97317.18;;;22.90;59.74
60375;BME280;70244;48.792;9.172;2024-03-22T16:43:49;97319.66;;;22.74;60.06
60375;BME280;70244;48.792;9.172;2024-03-22T16:46:20;97316.06;;;22.52;61.42
60375;BME280;70244;48.792;9.172;2024-03-22T16:48:50;97316.30;;;22.48;58.89
60375;BME280;70244;48.792;9.172;2024-03-22T16:51:20;97317.81;;;22.14;56.38
60375;BME280;70244;48.792;9.172;2024-03-22T16:53:51;97315.43;;;22.37;56.43
60375;BME280;70244;48.792;9.172;2024-03-22T16:56:22;97316.41;;;22.85;51.54
60375;BME280;70244;48.792;9.172;2024-03-22T16:58:52;97316.79;;;22.55;56.67
60375;BME280;70244;48.792;9.172;2024-03-22T17:01:23;97314.36;;;22.60;55.70
60375;BME280;70244;48.792;9.172;2024-03-22T17:03:54;97312.97;;;22.63;54.39
60375;BME280;70244;48.792;9.172;2024-03-22T17:06:24;97311.33;;;21.83;53.54
60375;BME280;70244;48.792;9.172;2024-03-22T17:08:54;97312.83;;;22.42;54.15
60375;BME280;70244;48.792;9.172;2024-03-22T17:11:25;97311.48;;;22.31;55.63
60375;BME280;70244;48.792;9.172;2024-03-22T17:13:55;97306.78;;;22.31;56.07
60375;BME280;70244;48.792;9.172;2024-03-22T17:16:26;97306.35;;;22.40;55.85
60375;BME280;70244;48.792;9.172;2024-03-22T17:18:57;97304.15;;;22.41;55.43
60375;BME280;70244;48.792;9.172;2024-03-22T17:21:27;97298.39;;;22.34;55.81
60375;BME280;70244;48.792;9.172;2024-03-22T17:23:58;97293.62;;;22.36;53.89
60375;BME280;70244;48.792;9.172;2024-03-22T17:26:29;97290.33;;;21.99;55.06
60375;BME280;70244;48.792;9.172;2024-03-22T17:28:59;97286.76;;;22.19;55.07
60375;BME280;70244;48.792;9.172;2024-03-22T17:31:30;97287.14;;;22.34;56.23
60375;BME280;70244;48.792;9.172;2024-03-22T17:34:01;97281.08;;;22.27;55.49
60375;BME280;70244;48.792;9.172;2024-03-22T17:36:31;97279.03;;;22.23;55.33
60375;BME280;70244;48.792;9.172;2024-03-22T17:39:02;97276.26;;;22.42;53.73
60375;BME280;70244;48.792;9.172;2024-03-22T17:41:32;97273.96;;;22.00;53.88
60375;BME280;70244;48.792;9.172;2024-03-22T17:44:03;97272.99;;;22.04;55.17
60375;BME280;70244;48.792;9.172;2024-03-22T17:46:34;97271.66;;;22.39;53.08
60375;BME280;70244;48.792;9.172;2024-03-22T17:49:04;97273.16;;;22.29;53.25
60375;BME280;70244;48.792;9.172;2024-03-22T17:51:35;97270.71;;;21.98;52.98
60375;BME280;70244;48.792;9.172;2024-03-22T17:54:05;97270.93;;;21.92;54.11
60375;BME280;70244;48.792;9.172;2024-03-22T17:56:36;97268.04;;;22.27;53.97
60375;BME280;70244;48.792;9.172;2024-03-22T17:59:06;97267.46;;;22.06;54.11
60375;BME280;70244;48.792;9.172;2024-03-22T18:01:37;97265.61;;;22.47;52.22
60375;BME280;70244;48.792;9.172;2024-03-22T18:04:08;97264.00;;;22.16;54.85
60375;BME280;70244;48.792;9.172;2024-03-22T18:06:39;97262.39;;;22.16;53.72
60375;BME280;70244;48.792;9.172;2024-03-22T18:09:09;97263.91;;;22.34;52.25
60375;BME280;70244;48.792;9.172;2024-03-22T18:11:40;97264.94;;;22.09;55.57
60375;BME280;70244;48.792;9.172;2024-03-22T18:14:11;97265.83;;;21.78;56.27
60375;BME280;70244;48.792;9.172;2024-03-22T18:16:41;97263.90;;;22.51;55.44
60375;BME280;70244;48.792;9.172;2024-03-22T18:19:12;97258.77;;;22.68;55.49
60375;BME280;70244;48.792;9.172;2024-03-22T18:21:43;97260.68;;;22.77;55.44
60375;BME280;70244;48.792;9.172;2024-03-22T18:24:13;97260.91;;;22.78;56.60
60375;BME280;70244;48.792;9.172;2024-03-22T18:26:43;97261.89;;;23.02;60.48
60375;BME280;70244;48.792;9.172;2024-03-22T18:29:14;97260.22;;;23.19;62.94
60375;BME280;70244;48.792;9.172;2024-03-22T18:31:44;97259.03;;;23.17;59.93